sensor_id;sensor_type;location;lat;lon;timestamp;P1;durP1;ratioP1;P2;durP2;ratioP2
29902;SDS011;30288;50.514;9.678;2023-03-23T00:00:38;3.17;;;1.08;;
29902;SDS011;30288;50.514;9.678;2023-03-23T00:02:43;6.55;;;1.10;;
29902;SDS011;30288;50.514;9.678;2023-03-23T00:04:48;4.22;;;1.05;;
29902;SDS011;30288;50.514;9.678;2023-03-23T00:06:54;7.72;;;1.17;;
29902;SDS011;30288;50.514;9.678;2023-03-23T00:09:02;6.13;;;1.10;;
29902;SDS011;30288;50.514;9.678;2023-03-23T00:11:07;4.07;;;1.20;;
29902;SDS011;30288;50.514;9.678;2023-03-23T00:13:13;5.03;;;1.17;;
29902;SDS011;30288;50.514;9.678;2023-03-23T00:15:20;4.32;;;1.17;;
29902;SDS011;30288;50.514;9.678;2023-03-23T00:17:29;3.35;;;1.00;;
29902;SDS011;30288;50.514;9.678;2023-03-23T00:19:36;3.75;;;1.30;;
29902;SDS011;30288;50.514;9.678;2023-03-23T00:21:47;3.53;;;0.98;;
29902;SDS011;30288;50.514;9.678;2023-03-23T00:23:54;4.75;;;1.10;;
29902;SDS011;30288;50.514;9.678;2023-03-23T00:26:01;5.47;;;0.90;;
29902;SDS011;30288;50.514;9.678;2023-03-23T00:28:06;3.17;;;0.95;;
29902;SDS011;30288;50.514;9.678;2023-03-23T00:30:14;2.95;;;0.93;;
29902;SDS011;30288;50.514;9.678;2023-03-23T00:32:20;3.65;;;1.10;;
29902;SDS011;30288;50.514;9.678;2023-03-23T00:34:31;3.08;;;1.10;;
29902;SDS011;30288;50.514;9.678;2023-03-23T00:36:36;4.88;;;0.90;;
29902;SDS011;30288;50.514;9.678;2023-03-23T00:38:46;4.72;;;1.10;;
29902;SDS011;30288;50.514;9.678;2023-03-23T00:40:54;5.18;;;1.20;;
29902;SDS011;30288;50.514;9.678;2023-03-23T00:42:59;6.22;;;1.08;;
29902;SDS011;30288;50.514;9.678;2023-03-23T00:45:06;3.83;;;1.10;;
29902;SDS011;30288;50.514;9.678;2023-03-23T00:47:14;3.78;;;1.30;;
29902;SDS011;30288;50.514;9.678;2023-03-23T00:49:20;4.20;;;1.00;;
29902;SDS011;30288;50.514;9.678;2023-03-23T00:51:30;4.10;;;0.90;;
29902;SDS011;30288;50.514;9.678;2023-03-23T00:53:35;2.33;;;1.08;;
29902;SDS011;30288;50.514;9.678;2023-03-23T00:55:41;6.90;;;1.40;;
29902;SDS011;30288;50.514;9.678;2023-03-23T00:57:46;11.05;;;1.77;;
29902;SDS011;30288;50.514;9.678;2023-03-23T00:59:53;5.72;;;1.23;;
29902;SDS011;30288;50.514;9.678;2023-03-23T01:02:06;6.03;;;1.10;;
29902;SDS011;30288;50.514;9.678;2023-03-23T01:04:11;8.88;;;1.40;;
29902;SDS011;30288;50.514;9.678;2023-03-23T01:06:16;4.63;;;1.58;;
29902;SDS011;30288;50.514;9.678;2023-03-23T01:08:26;2.85;;;1.02;;
29902;SDS011;30288;50.514;9.678;2023-03-23T01:10:33;8.90;;;1.77;;
29902;SDS011;30288;50.514;9.678;2023-03-23T01:12:40;3.92;;;1.55;;
29902;SDS011;30288;50.514;9.678;2023-03-23T01:14:45;7.70;;;1.38;;
29902;SDS011;30288;50.514;9.678;2023-03-23T01:16:51;3.00;;;1.17;;
29902;SDS011;30288;50.514;9.678;2023-03-23T01:18:56;2.20;;;1.00;;
29902;SDS011;30288;50.514;9.678;2023-03-23T01:21:03;4.63;;;1.20;;
29902;SDS011;30288;50.514;9.678;2023-03-23T01:23:10;4.47;;;1.13;;
29902;SDS011;30288;50.514;9.678;2023-03-23T01:25:18;10.05;;;1.73;;
29902;SDS011;30288;50.514;9.678;2023-03-23T01:27:23;9.75;;;1.58;;
29902;SDS011;30288;50.514;9.678;2023-03-23T01:29:29;3.85;;;1.00;;
29902;SDS011;30288;50.514;9.678;2023-03-23T01:31:35;4.97;;;1.40;;
29902;SDS011;30288;50.514;9.678;2023-03-23T01:33:41;3.55;;;1.23;;
29902;SDS011;30288;50.514;9.678;2023-03-23T01:35:47;4.78;;;1.15;;
29902;SDS011;30288;50.514;9.678;2023-03-23T01:37:53;4.43;;;1.50;;
29902;SDS011;30288;50.514;9.678;2023-03-23T01:39:58;6.40;;;1.40;;
29902;SDS011;30288;50.514;9.678;2023-03-23T01:42:09;2.90;;;1.38;;
29902;SDS011;30288;50.514;9.678;2023-03-23T01:47:26;11.60;;;1.73;;
29902;SDS011;30288;50.514;9.678;2023-03-23T01:49:33;14.43;;;1.90;;
29902;SDS011;30288;50.514;9.678;2023-03-23T01:51:42;4.40;;;1.17;;
29902;SDS011;30288;50.514;9.678;2023-03-23T01:53:53;4.07;;;1.38;;
29902;SDS011;30288;50.514;9.678;2023-03-23T01:56:01;8.50;;;1.70;;
29902;SDS011;30288;50.514;9.678;2023-03-23T01:58:09;4.00;;;1.30;;
29902;SDS011;30288;50.514;9.678;2023-03-23T02:00:16;3.60;;;1.10;;
29902;SDS011;30288;50.514;9.678;2023-03-23T02:02:26;11.90;;;1.60;;
29902;SDS011;30288;50.514;9.678;2023-03-23T02:04:34;4.70;;;1.20;;
29902;SDS011;30288;50.514;9.678;2023-03-23T02:06:39;3.42;;;1.00;;
29902;SDS011;30288;50.514;9.678;2023-03-23T02:08:54;4.18;;;1.20;;
29902;SDS011;30288;50.514;9.678;2023-03-23T02:11:13;6.20;;;1.60;;
29902;SDS011;30288;50.514;9.678;2023-03-23T02:13:25;4.25;;;1.30;;
29902;SDS011;30288;50.514;9.678;2023-03-23T02:15:35;4.40;;;1.38;;
29902;SDS011;30288;50.514;9.678;2023-03-23T02:17:55;2.35;;;1.30;;
29902;SDS011;30288;50.514;9.678;2023-03-23T02:25:56;2.58;;;1.00;;
29902;SDS011;30288;50.514;9.678;2023-03-23T02:28:22;7.93;;;1.35;;
29902;SDS011;30288;50.514;9.678;2023-03-23T02:30:58;3.92;;;1.17;;
29902;SDS011;30288;50.514;9.678;2023-03-23T02:33:36;3.13;;;1.00;;
29902;SDS011;30288;50.514;9.678;2023-03-23T02:35:49;5.70;;;1.27;;
29902;SDS011;30288;50.514;9.678;2023-03-23T02:38:01;3.30;;;1.10;;
29902;SDS011;30288;50.514;9.678;2023-03-23T02:40:12;3.42;;;1.00;;
29902;SDS011;30288;50.514;9.678;2023-03-23T02:42:22;4.47;;;0.88;;
29902;SDS011;30288;50.514;9.678;2023-03-23T02:44:31;3.17;;;1.10;;
29902;SDS011;30288;50.514;9.678;2023-03-23T02:46:40;2.78;;;0.90;;
29902;SDS011;30288;50.514;9.678;2023-03-23T02:48:49;2.55;;;0.90;;
29902;SDS011;30288;50.514;9.678;2023-03-23T02:50:58;2.50;;;0.88;;
29902;SDS011;30288;50.514;9.678;2023-03-23T02:53:07;4.32;;;1.05;;
29902;SDS011;30288;50.514;9.678;2023-03-23T02:55:15;4.32;;;0.95;;
29902;SDS011;30288;50.514;9.678;2023-03-23T02:57:24;3.30;;;1.00;;
29902;SDS011;30288;50.514;9.678;2023-03-23T02:59:43;6.20;;;1.13;;
29902;SDS011;30288;50.514;9.678;2023-03-23T03:01:57;4.97;;;1.20;;
29902;SDS011;30288;50.514;9.678;2023-03-23T03:04:12;3.85;;;1.08;;
29902;SDS011;30288;50.514;9.678;2023-03-23T03:06:23;4.60;;;0.90;;
29902;SDS011;30288;50.514;9.678;2023-03-23T03:08:37;4.30;;;0.90;;
29902;SDS011;30288;50.514;9.678;2023-03-23T03:10:51;4.05;;;0.90;;
29902;SDS011;30288;50.514;9.678;2023-03-23T03:13:05;4.72;;;1.02;;
29902;SDS011;30288;50.514;9.678;2023-03-23T03:15:23;1.88;;;0.73;;
29902;SDS011;30288;50.514;9.678;2023-03-23T03:17:34;6.05;;;1.27;;
29902;SDS011;30288;50.514;9.678;2023-03-23T03:19:45;2.92;;;1.33;;
29902;SDS011;30288;50.514;9.678;2023-03-23T03:21:54;6.80;;;1.15;;
29902;SDS011;30288;50.514;9.678;2023-03-23T03:24:14;6.00;;;1.25;;
29902;SDS011;30288;50.514;9.678;2023-03-23T03:26:25;2.78;;;0.98;;
29902;SDS011;30288;50.514;9.678;2023-03-23T03:28:47;2.13;;;0.98;;
29902;SDS011;30288;50.514;9.678;2023-03-23T03:30:55;3.00;;;0.98;;
29902;SDS011;30288;50.514;9.678;2023-03-23T03:33:06;3.72;;;1.20;;
29902;SDS011;30288;50.514;9.678;2023-03-23T03:35:16;3.45;;;1.05;;
29902;SDS011;30288;50.514;9.678;2023-03-23T03:37:24;3.42;;;0.80;;
29902;SDS011;30288;50.514;9.678;2023-03-23T03:39:29;7.75;;;1.20;;
29902;SDS011;30288;50.514;9.678;2023-03-23T03:41:38;2.90;;;1.00;;
29902;SDS011;30288;50.514;9.678;2023-03-23T03:43:44;3.42;;;1.13;;
29902;SDS011;30288;50.514;9.678;2023-03-23T03:45:50;6.13;;;1.02;;
29902;SDS011;30288;50.514;9.678;2023-03-23T03:47:56;4.10;;;1.20;;
29902;SDS011;30288;50.514;9.678;2023-03-23T03:50:03;5.57;;;1.02;;
29902;SDS011;30288;50.514;9.678;2023-03-23T03:52:12;4.03;;;1.10;;
29902;SDS011;30288;50.514;9.678;2023-03-23T03:54:18;1.85;;;0.77;;
29902;SDS011;30288;50.514;9.678;2023-03-23T03:56:23;6.88;;;1.25;;
29902;SDS011;30288;50.514;9.678;2023-03-23T03:58:41;3.15;;;1.08;;
29902;SDS011;30288;50.514;9.678;2023-03-23T04:01:18;5.55;;;1.35;;
29902;SDS011;30288;50.514;9.678;2023-03-23T04:03:26;5.00;;;1.25;;
29902;SDS011;30288;50.514;9.678;2023-03-23T04:05:40;3.75;;;1.05;;
29902;SDS011;30288;50.514;9.678;2023-03-23T04:08:01;3.80;;;1.20;;
29902;SDS011;30288;50.514;9.678;2023-03-23T04:10:10;1.58;;;0.80;;
29902;SDS011;30288;50.514;9.678;2023-03-23T04:12:34;3.70;;;1.20;;
29902;SDS011;30288;50.514;9.678;2023-03-23T04:14:40;10.82;;;1.25;;
29902;SDS011;30288;50.514;9.678;2023-03-23T04:16:45;4.80;;;1.40;;
29902;SDS011;30288;50.514;9.678;2023-03-23T04:18:55;3.90;;;1.38;;
29902;SDS011;30288;50.514;9.678;2023-03-23T04:21:03;3.65;;;1.10;;
29902;SDS011;30288;50.514;9.678;2023-03-23T04:23:12;4.55;;;1.30;;
29902;SDS011;30288;50.514;9.678;2023-03-23T04:25:21;3.85;;;1.20;;
29902;SDS011;30288;50.514;9.678;2023-03-23T04:27:27;4.20;;;1.30;;
29902;SDS011;30288;50.514;9.678;2023-03-23T04:29:35;6.05;;;1.63;;
29902;SDS011;30288;50.514;9.678;2023-03-23T04:31:59;4.60;;;1.40;;
29902;SDS011;30288;50.514;9.678;2023-03-23T04:34:11;4.07;;;1.33;;
29902;SDS011;30288;50.514;9.678;2023-03-23T04:36:21;4.45;;;1.20;;
29902;SDS011;30288;50.514;9.678;2023-03-23T04:38:53;4.80;;;1.35;;
29902;SDS011;30288;50.514;9.678;2023-03-23T04:40:59;5.05;;;1.80;;
29902;SDS011;30288;50.514;9.678;2023-03-23T04:43:26;3.33;;;1.45;;
29902;SDS011;30288;50.514;9.678;2023-03-23T04:45:54;8.25;;;1.52;;
29902;SDS011;30288;50.514;9.678;2023-03-23T04:48:03;7.65;;;2.10;;
29902;SDS011;30288;50.514;9.678;2023-03-23T04:50:18;5.03;;;1.77;;
29902;SDS011;30288;50.514;9.678;2023-03-23T04:52:26;8.88;;;3.13;;
29902;SDS011;30288;50.514;9.678;2023-03-23T04:54:38;6.93;;;1.65;;
29902;SDS011;30288;50.514;9.678;2023-03-23T04:56:44;5.78;;;1.80;;
29902;SDS011;30288;50.514;9.678;2023-03-23T04:58:50;5.13;;;1.73;;
29902;SDS011;30288;50.514;9.678;2023-03-23T05:01:15;6.32;;;2.15;;
29902;SDS011;30288;50.514;9.678;2023-03-23T05:03:31;9.50;;;2.40;;
29902;SDS011;30288;50.514;9.678;2023-03-23T05:05:38;9.07;;;2.05;;
29902;SDS011;30288;50.514;9.678;2023-03-23T05:07:43;8.73;;;2.30;;
29902;SDS011;30288;50.514;9.678;2023-03-23T05:10:04;6.32;;;2.20;;
29902;SDS011;30288;50.514;9.678;2023-03-23T05:12:27;6.68;;;1.90;;
29902;SDS011;30288;50.514;9.678;2023-03-23T05:14:35;9.35;;;2.05;;
29902;SDS011;30288;50.514;9.678;2023-03-23T05:16:49;5.20;;;1.98;;
29902;SDS011;30288;50.514;9.678;2023-03-23T05:18:56;6.97;;;2.13;;
29902;SDS011;30288;50.514;9.678;2023-03-23T05:21:03;9.20;;;2.45;;
29902;SDS011;30288;50.514;9.678;2023-03-23T05:23:13;11.02;;;2.30;;
29902;SDS011;30288;50.514;9.678;2023-03-23T05:25:22;9.43;;;2.20;;
29902;SDS011;30288;50.514;9.678;2023-03-23T05:27:34;6.18;;;2.15;;
29902;SDS011;30288;50.514;9.678;2023-03-23T05:29:53;12.48;;;1.90;;
29902;SDS011;30288;50.514;9.678;2023-03-23T05:31:59;6.15;;;2.13;;
29902;SDS011;30288;50.514;9.678;2023-03-23T05:34:07;6.32;;;2.03;;
29902;SDS011;30288;50.514;9.678;2023-03-23T05:36:27;6.90;;;2.45;;
29902;SDS011;30288;50.514;9.678;2023-03-23T05:38:41;4.72;;;2.13;;
29902;SDS011;30288;50.514;9.678;2023-03-23T05:40:53;12.35;;;2.92;;
29902;SDS011;30288;50.514;9.678;2023-03-23T05:43:10;8.57;;;2.58;;
29902;SDS011;30288;50.514;9.678;2023-03-23T05:45:25;5.93;;;2.40;;
29902;SDS011;30288;50.514;9.678;2023-03-23T05:47:30;8.43;;;2.10;;
29902;SDS011;30288;50.514;9.678;2023-03-23T05:49:40;5.40;;;2.40;;
29902;SDS011;30288;50.514;9.678;2023-03-23T05:51:50;13.18;;;2.28;;
29902;SDS011;30288;50.514;9.678;2023-03-23T05:53:55;16.02;;;2.85;;
29902;SDS011;30288;50.514;9.678;2023-03-23T05:56:04;7.95;;;2.45;;
29902;SDS011;30288;50.514;9.678;2023-03-23T05:58:29;8.32;;;1.98;;
29902;SDS011;30288;50.514;9.678;2023-03-23T06:00:34;9.50;;;2.50;;
29902;SDS011;30288;50.514;9.678;2023-03-23T06:02:54;6.40;;;1.95;;
29902;SDS011;30288;50.514;9.678;2023-03-23T06:05:09;17.63;;;3.85;;
29902;SDS011;30288;50.514;9.678;2023-03-23T06:07:18;9.30;;;2.38;;
29902;SDS011;30288;50.514;9.678;2023-03-23T06:09:31;6.78;;;2.15;;
29902;SDS011;30288;50.514;9.678;2023-03-23T06:11:59;4.43;;;2.22;;
29902;SDS011;30288;50.514;9.678;2023-03-23T06:14:20;8.70;;;2.30;;
29902;SDS011;30288;50.514;9.678;2023-03-23T06:16:25;5.68;;;2.58;;
29902;SDS011;30288;50.514;9.678;2023-03-23T06:18:32;8.93;;;2.60;;
29902;SDS011;30288;50.514;9.678;2023-03-23T06:20:44;13.15;;;3.63;;
29902;SDS011;30288;50.514;9.678;2023-03-23T06:23:08;8.13;;;2.53;;
29902;SDS011;30288;50.514;9.678;2023-03-23T06:25:15;9.13;;;2.42;;
29902;SDS011;30288;50.514;9.678;2023-03-23T06:27:24;11.82;;;2.55;;
29902;SDS011;30288;50.514;9.678;2023-03-23T06:29:31;6.00;;;2.25;;
29902;SDS011;30288;50.514;9.678;2023-03-23T06:31:37;10.27;;;2.58;;
29902;SDS011;30288;50.514;9.678;2023-03-23T06:33:44;7.70;;;2.22;;
29902;SDS011;30288;50.514;9.678;2023-03-23T06:36:15;5.68;;;2.17;;
29902;SDS011;30288;50.514;9.678;2023-03-23T06:38:43;7.95;;;2.40;;
29902;SDS011;30288;50.514;9.678;2023-03-23T06:40:52;6.15;;;2.35;;
29902;SDS011;30288;50.514;9.678;2023-03-23T06:43:07;9.60;;;2.40;;
29902;SDS011;30288;50.514;9.678;2023-03-23T06:45:38;6.00;;;2.30;;
29902;SDS011;30288;50.514;9.678;2023-03-23T06:48:18;5.75;;;2.13;;
29902;SDS011;30288;50.514;9.678;2023-03-23T06:50:24;7.22;;;2.22;;
29902;SDS011;30288;50.514;9.678;2023-03-23T06:52:30;6.90;;;2.42;;
29902;SDS011;30288;50.514;9.678;2023-03-23T06:54:35;6.35;;;2.20;;
29902;SDS011;30288;50.514;9.678;2023-03-23T06:56:42;6.13;;;2.30;;
29902;SDS011;30288;50.514;9.678;2023-03-23T06:58:50;8.18;;;2.38;;
29902;SDS011;30288;50.514;9.678;2023-03-23T07:00:57;5.63;;;2.42;;
29902;SDS011;30288;50.514;9.678;2023-03-23T07:03:08;6.93;;;2.92;;
29902;SDS011;30288;50.514;9.678;2023-03-23T07:05:13;4.10;;;1.90;;
29902;SDS011;30288;50.514;9.678;2023-03-23T07:07:19;6.70;;;2.22;;
29902;SDS011;30288;50.514;9.678;2023-03-23T07:09:47;12.38;;;2.80;;
29902;SDS011;30288;50.514;9.678;2023-03-23T07:11:56;7.05;;;3.13;;
29902;SDS011;30288;50.514;9.678;2023-03-23T07:14:09;5.38;;;2.60;;
29902;SDS011;30288;50.514;9.678;2023-03-23T07:16:15;9.60;;;2.60;;
29902;SDS011;30288;50.514;9.678;2023-03-23T07:18:21;6.22;;;2.00;;
29902;SDS011;30288;50.514;9.678;2023-03-23T07:20:28;8.10;;;2.15;;
29902;SDS011;30288;50.514;9.678;2023-03-23T07:22:34;6.68;;;2.38;;
29902;SDS011;30288;50.514;9.678;2023-03-23T07:24:50;5.78;;;2.10;;
29902;SDS011;30288;50.514;9.678;2023-03-23T07:27:04;7.15;;;2.53;;
29902;SDS011;30288;50.514;9.678;2023-03-23T07:29:14;5.97;;;2.10;;
29902;SDS011;30288;50.514;9.678;2023-03-23T07:31:22;5.30;;;2.40;;
29902;SDS011;30288;50.514;9.678;2023-03-23T07:33:29;10.25;;;2.03;;
29902;SDS011;30288;50.514;9.678;2023-03-23T07:35:36;8.45;;;2.20;;
29902;SDS011;30288;50.514;9.678;2023-03-23T07:37:46;5.88;;;2.03;;
29902;SDS011;30288;50.514;9.678;2023-03-23T07:40:00;11.50;;;2.50;;
29902;SDS011;30288;50.514;9.678;2023-03-23T07:42:10;6.40;;;2.20;;
29902;SDS011;30288;50.514;9.678;2023-03-23T07:44:23;8.48;;;2.47;;
29902;SDS011;30288;50.514;9.678;2023-03-23T07:46:30;5.80;;;2.10;;
29902;SDS011;30288;50.514;9.678;2023-03-23T07:48:46;6.47;;;2.40;;
29902;SDS011;30288;50.514;9.678;2023-03-23T07:50:52;6.57;;;1.98;;
29902;SDS011;30288;50.514;9.678;2023-03-23T07:52:57;4.60;;;2.28;;
29902;SDS011;30288;50.514;9.678;2023-03-23T07:55:05;9.23;;;2.17;;
29902;SDS011;30288;50.514;9.678;2023-03-23T07:57:27;5.53;;;2.60;;
29902;SDS011;30288;50.514;9.678;2023-03-23T07:59:37;7.18;;;2.53;;
29902;SDS011;30288;50.514;9.678;2023-03-23T08:01:43;9.10;;;2.70;;
29902;SDS011;30288;50.514;9.678;2023-03-23T08:04:15;9.20;;;2.33;;
29902;SDS011;30288;50.514;9.678;2023-03-23T08:06:32;9.88;;;2.30;;
29902;SDS011;30288;50.514;9.678;2023-03-23T08:08:59;7.97;;;2.38;;
29902;SDS011;30288;50.514;9.678;2023-03-23T08:11:27;7.95;;;2.47;;
29902;SDS011;30288;50.514;9.678;2023-03-23T08:14:01;11.23;;;2.58;;
29902;SDS011;30288;50.514;9.678;2023-03-23T08:16:28;8.48;;;2.88;;
29902;SDS011;30288;50.514;9.678;2023-03-23T08:18:44;5.75;;;2.28;;
29902;SDS011;30288;50.514;9.678;2023-03-23T08:21:09;10.52;;;2.88;;
29902;SDS011;30288;50.514;9.678;2023-03-23T08:23:34;9.63;;;3.00;;
29902;SDS011;30288;50.514;9.678;2023-03-23T08:25:43;7.05;;;2.25;;
29902;SDS011;30288;50.514;9.678;2023-03-23T08:27:58;9.52;;;2.78;;
29902;SDS011;30288;50.514;9.678;2023-03-23T08:30:26;4.93;;;2.55;;
29902;SDS011;30288;50.514;9.678;2023-03-23T08:32:46;11.25;;;2.80;;
29902;SDS011;30288;50.514;9.678;2023-03-23T08:35:21;6.18;;;2.85;;
29902;SDS011;30288;50.514;9.678;2023-03-23T08:37:44;8.18;;;2.47;;
29902;SDS011;30288;50.514;9.678;2023-03-23T08:40:13;7.20;;;2.75;;
29902;SDS011;30288;50.514;9.678;2023-03-23T08:42:20;4.95;;;2.40;;
29902;SDS011;30288;50.514;9.678;2023-03-23T08:44:40;9.63;;;3.05;;
29902;SDS011;30288;50.514;9.678;2023-03-23T08:46:50;6.03;;;2.50;;
29902;SDS011;30288;50.514;9.678;2023-03-23T08:49:18;6.55;;;2.33;;
29902;SDS011;30288;50.514;9.678;2023-03-23T08:51:41;3.90;;;1.92;;
29902;SDS011;30288;50.514;9.678;2023-03-23T08:54:01;9.65;;;3.15;;
29902;SDS011;30288;50.514;9.678;2023-03-23T08:56:30;8.45;;;2.80;;
29902;SDS011;30288;50.514;9.678;2023-03-23T08:58:43;7.05;;;2.65;;
29902;SDS011;30288;50.514;9.678;2023-03-23T09:01:24;6.43;;;1.98;;
29902;SDS011;30288;50.514;9.678;2023-03-23T09:03:55;5.47;;;2.63;;
29902;SDS011;30288;50.514;9.678;2023-03-23T09:06:22;6.68;;;2.28;;
29902;SDS011;30288;50.514;9.678;2023-03-23T09:08:29;5.28;;;2.33;;
29902;SDS011;30288;50.514;9.678;2023-03-23T09:10:37;6.13;;;2.53;;
29902;SDS011;30288;50.514;9.678;2023-03-23T09:12:43;4.30;;;2.08;;
29902;SDS011;30288;50.514;9.678;2023-03-23T09:14:50;6.97;;;2.35;;
29902;SDS011;30288;50.514;9.678;2023-03-23T09:16:55;4.82;;;1.98;;
29902;SDS011;30288;50.514;9.678;2023-03-23T09:19:00;6.72;;;2.50;;
29902;SDS011;30288;50.514;9.678;2023-03-23T09:21:05;4.90;;;1.95;;
29902;SDS011;30288;50.514;9.678;2023-03-23T09:23:22;5.68;;;2.30;;
29902;SDS011;30288;50.514;9.678;2023-03-23T09:25:27;8.23;;;2.88;;
29902;SDS011;30288;50.514;9.678;2023-03-23T09:27:33;6.43;;;2.42;;
29902;SDS011;30288;50.514;9.678;2023-03-23T09:29:38;5.30;;;2.20;;
29902;SDS011;30288;50.514;9.678;2023-03-23T09:31:43;5.50;;;2.40;;
29902;SDS011;30288;50.514;9.678;2023-03-23T09:33:48;8.43;;;2.70;;
29902;SDS011;30288;50.514;9.678;2023-03-23T09:35:57;9.60;;;2.67;;
29902;SDS011;30288;50.514;9.678;2023-03-23T09:38:04;4.70;;;2.30;;
29902;SDS011;30288;50.514;9.678;2023-03-23T09:40:14;6.95;;;2.42;;
29902;SDS011;30288;50.514;9.678;2023-03-23T09:42:28;7.90;;;2.70;;
29902;SDS011;30288;50.514;9.678;2023-03-23T09:44:48;5.40;;;2.57;;
29902;SDS011;30288;50.514;9.678;2023-03-23T09:47:12;6.97;;;2.20;;
29902;SDS011;30288;50.514;9.678;2023-03-23T09:49:24;5.45;;;2.63;;
29902;SDS011;30288;50.514;9.678;2023-03-23T09:51:44;8.70;;;2.50;;
29902;SDS011;30288;50.514;9.678;2023-03-23T09:53:55;7.47;;;2.67;;
29902;SDS011;30288;50.514;9.678;2023-03-23T09:56:11;8.02;;;2.75;;
29902;SDS011;30288;50.514;9.678;2023-03-23T09:58:20;5.95;;;2.63;;
29902;SDS011;30288;50.514;9.678;2023-03-23T10:00:31;7.00;;;2.55;;
29902;SDS011;30288;50.514;9.678;2023-03-23T10:02:41;6.32;;;2.60;;
29902;SDS011;30288;50.514;9.678;2023-03-23T10:04:54;6.05;;;3.30;;
29902;SDS011;30288;50.514;9.678;2023-03-23T10:07:09;7.97;;;3.17;;
29902;SDS011;30288;50.514;9.678;2023-03-23T10:09:18;5.88;;;2.20;;
29902;SDS011;30288;50.514;9.678;2023-03-23T10:11:32;7.00;;;2.53;;
29902;SDS011;30288;50.514;9.678;2023-03-23T10:13:53;6.22;;;2.35;;
29902;SDS011;30288;50.514;9.678;2023-03-23T10:16:14;6.97;;;2.72;;
29902;SDS011;30288;50.514;9.678;2023-03-23T10:18:25;7.25;;;2.80;;
29902;SDS011;30288;50.514;9.678;2023-03-23T10:20:43;5.95;;;2.22;;
29902;SDS011;30288;50.514;9.678;2023-03-23T10:22:57;5.47;;;2.63;;
29902;SDS011;30288;50.514;9.678;2023-03-23T10:25:15;4.32;;;2.08;;
29902;SDS011;30288;50.514;9.678;2023-03-23T10:27:29;7.32;;;2.30;;
29902;SDS011;30288;50.514;9.678;2023-03-23T10:29:45;5.97;;;2.60;;
29902;SDS011;30288;50.514;9.678;2023-03-23T10:31:58;6.93;;;2.20;;
29902;SDS011;30288;50.514;9.678;2023-03-23T10:34:08;8.75;;;2.13;;
29902;SDS011;30288;50.514;9.678;2023-03-23T10:36:20;9.48;;;2.63;;
29902;SDS011;30288;50.514;9.678;2023-03-23T10:38:32;9.50;;;3.10;;
29902;SDS011;30288;50.514;9.678;2023-03-23T10:40:45;7.68;;;2.50;;
29902;SDS011;30288;50.514;9.678;2023-03-23T10:43:00;6.53;;;2.60;;
29902;SDS011;30288;50.514;9.678;2023-03-23T10:45:12;9.90;;;2.80;;
29902;SDS011;30288;50.514;9.678;2023-03-23T10:47:24;4.22;;;2.15;;
29902;SDS011;30288;50.514;9.678;2023-03-23T10:49:32;7.28;;;2.53;;
29902;SDS011;30288;50.514;9.678;2023-03-23T10:51:43;6.20;;;2.60;;
29902;SDS011;30288;50.514;9.678;2023-03-23T10:54:10;8.00;;;2.78;;
29902;SDS011;30288;50.514;9.678;2023-03-23T10:56:21;7.72;;;2.40;;
29902;SDS011;30288;50.514;9.678;2023-03-23T10:58:33;4.45;;;2.13;;
29902;SDS011;30288;50.514;9.678;2023-03-23T11:00:40;8.80;;;2.70;;
29902;SDS011;30288;50.514;9.678;2023-03-23T11:02:56;5.68;;;2.40;;
29902;SDS011;30288;50.514;9.678;2023-03-23T11:05:18;5.45;;;2.35;;
29902;SDS011;30288;50.514;9.678;2023-03-23T11:07:27;10.05;;;2.90;;
29902;SDS011;30288;50.514;9.678;2023-03-23T11:09:36;6.82;;;2.83;;
29902;SDS011;30288;50.514;9.678;2023-03-23T11:11:48;6.60;;;2.67;;
29902;SDS011;30288;50.514;9.678;2023-03-23T11:14:13;4.68;;;2.25;;
29902;SDS011;30288;50.514;9.678;2023-03-23T11:16:22;6.28;;;2.70;;
29902;SDS011;30288;50.514;9.678;2023-03-23T11:18:34;4.75;;;2.20;;
29902;SDS011;30288;50.514;9.678;2023-03-23T11:20:42;6.40;;;2.40;;
29902;SDS011;30288;50.514;9.678;2023-03-23T11:22:52;5.88;;;2.75;;
29902;SDS011;30288;50.514;9.678;2023-03-23T11:24:59;5.55;;;2.17;;
29902;SDS011;30288;50.514;9.678;2023-03-23T11:27:06;5.80;;;2.92;;
29902;SDS011;30288;50.514;9.678;2023-03-23T11:29:15;5.45;;;2.40;;
29902;SDS011;30288;50.514;9.678;2023-03-23T11:31:24;7.32;;;2.25;;
29902;SDS011;30288;50.514;9.678;2023-03-23T11:33:36;5.07;;;2.15;;
29902;SDS011;30288;50.514;9.678;2023-03-23T11:36:06;6.40;;;2.10;;
29902;SDS011;30288;50.514;9.678;2023-03-23T11:38:17;6.63;;;2.10;;
29902;SDS011;30288;50.514;9.678;2023-03-23T11:40:28;4.47;;;2.10;;
29902;SDS011;30288;50.514;9.678;2023-03-23T11:42:37;5.00;;;2.33;;
29902;SDS011;30288;50.514;9.678;2023-03-23T11:46:59;5.30;;;2.20;;
29902;SDS011;30288;50.514;9.678;2023-03-23T11:49:09;6.20;;;2.00;;
29902;SDS011;30288;50.514;9.678;2023-03-23T11:51:27;3.58;;;1.70;;
29902;SDS011;30288;50.514;9.678;2023-03-23T11:53:43;3.97;;;1.88;;
29902;SDS011;30288;50.514;9.678;2023-03-23T11:56:01;4.28;;;1.80;;
29902;SDS011;30288;50.514;9.678;2023-03-23T11:58:18;4.38;;;1.40;;
29902;SDS011;30288;50.514;9.678;2023-03-23T12:00:26;4.53;;;1.50;;
29902;SDS011;30288;50.514;9.678;2023-03-23T12:02:36;2.58;;;1.20;;
29902;SDS011;30288;50.514;9.678;2023-03-23T12:05:23;4.80;;;1.75;;
29902;SDS011;30288;50.514;9.678;2023-03-23T12:07:51;5.05;;;1.42;;
29902;SDS011;30288;50.514;9.678;2023-03-23T12:10:12;3.25;;;1.60;;
29902;SDS011;30288;50.514;9.678;2023-03-23T12:12:47;8.52;;;1.73;;
29902;SDS011;30288;50.514;9.678;2023-03-23T12:15:02;6.05;;;1.42;;
29902;SDS011;30288;50.514;9.678;2023-03-23T12:17:24;4.72;;;1.30;;
29902;SDS011;30288;50.514;9.678;2023-03-23T12:19:43;3.15;;;1.00;;
29902;SDS011;30288;50.514;9.678;2023-03-23T12:22:00;4.20;;;1.38;;
29902;SDS011;30288;50.514;9.678;2023-03-23T12:24:23;3.88;;;1.70;;
29902;SDS011;30288;50.514;9.678;2023-03-23T12:26:44;4.25;;;1.70;;
29902;SDS011;30288;50.514;9.678;2023-03-23T12:29:04;3.85;;;1.40;;
29902;SDS011;30288;50.514;9.678;2023-03-23T12:31:38;3.30;;;1.40;;
29902;SDS011;30288;50.514;9.678;2023-03-23T12:33:59;3.63;;;1.23;;
29902;SDS011;30288;50.514;9.678;2023-03-23T12:36:19;2.55;;;1.25;;
29902;SDS011;30288;50.514;9.678;2023-03-23T12:38:45;5.28;;;1.58;;
29902;SDS011;30288;50.514;9.678;2023-03-23T12:41:07;3.42;;;1.50;;
29902;SDS011;30288;50.514;9.678;2023-03-23T12:43:23;5.10;;;1.17;;
29902;SDS011;30288;50.514;9.678;2023-03-23T12:45:52;3.20;;;1.27;;
29902;SDS011;30288;50.514;9.678;2023-03-23T12:48:09;2.40;;;1.10;;
29902;SDS011;30288;50.514;9.678;2023-03-23T12:50:24;5.88;;;1.38;;
29902;SDS011;30288;50.514;9.678;2023-03-23T12:52:35;2.83;;;1.08;;
29902;SDS011;30288;50.514;9.678;2023-03-23T12:56:59;3.92;;;1.42;;
29902;SDS011;30288;50.514;9.678;2023-03-23T12:59:11;4.72;;;1.20;;
29902;SDS011;30288;50.514;9.678;2023-03-23T13:01:25;2.30;;;0.93;;
29902;SDS011;30288;50.514;9.678;2023-03-23T13:03:33;3.47;;;1.02;;
29902;SDS011;30288;50.514;9.678;2023-03-23T13:05:52;3.05;;;1.00;;
29902;SDS011;30288;50.514;9.678;2023-03-23T13:08:10;4.82;;;1.15;;
29902;SDS011;30288;50.514;9.678;2023-03-23T13:10:21;3.53;;;1.10;;
29902;SDS011;30288;50.514;9.678;2023-03-23T13:12:31;2.72;;;0.85;;
29902;SDS011;30288;50.514;9.678;2023-03-23T13:14:41;3.28;;;1.13;;
29902;SDS011;30288;50.514;9.678;2023-03-23T13:16:56;3.30;;;1.00;;
29902;SDS011;30288;50.514;9.678;2023-03-23T13:19:24;2.55;;;0.93;;
29902;SDS011;30288;50.514;9.678;2023-03-23T13:21:37;3.65;;;0.90;;
29902;SDS011;30288;50.514;9.678;2023-03-23T13:23:54;2.08;;;1.10;;
29902;SDS011;30288;50.514;9.678;2023-03-23T13:26:05;2.33;;;1.00;;
29902;SDS011;30288;50.514;9.678;2023-03-23T13:28:13;3.65;;;1.00;;
29902;SDS011;30288;50.514;9.678;2023-03-23T13:30:24;2.67;;;0.90;;
29902;SDS011;30288;50.514;9.678;2023-03-23T13:32:33;5.82;;;1.35;;
29902;SDS011;30288;50.514;9.678;2023-03-23T13:34:47;3.33;;;1.17;;